createdAt,value
2019-03-30T00:02:00.171Z,20.37
2019-03-30T00:04:30.326Z,21.12
2019-03-30T00:07:05.384Z,22.42
2019-03-30T00:09:36.686Z,19.90
2019-03-30T00:12:12.882Z,21.97
2019-03-30T00:14:42.995Z,22.07
2019-03-30T00:17:13.082Z,16.70
2019-03-30T00:19:43.178Z,15.55
2019-03-30T00:22:14.458Z,20.08
2019-03-30T00:24:45.156Z,18.45
2019-03-30T00:27:15.235Z,18.42
2019-03-30T00:29:45.306Z,17.50
2019-03-30T00:32:19.081Z,18.12
2019-03-30T00:34:49.161Z,17.20
2019-03-30T00:37:19.251Z,18.30
2019-03-30T00:39:55.165Z,18.90
2019-03-30T00:42:25.265Z,22.48
2019-03-30T00:45:03.989Z,19.52
2019-03-30T00:47:34.078Z,20.37
2019-03-30T00:50:06.884Z,18.65
2019-03-30T00:52:36.969Z,19.73
2019-03-30T00:55:07.969Z,19.82
2019-03-30T00:57:38.065Z,19.50
2019-03-30T01:00:10.177Z,19.87
2019-03-30T01:02:40.261Z,18.55
2019-03-30T01:05:10.579Z,20.12
2019-03-30T01:07:46.433Z,19.55
2019-03-30T01:10:19.366Z,19.98
2019-03-30T01:13:08.106Z,18.42
2019-03-30T01:15:38.217Z,16.50
2019-03-30T01:18:08.374Z,19.40
2019-03-30T01:20:39.357Z,20.27
2019-03-30T01:23:09.453Z,22.27
2019-03-30T01:25:39.553Z,21.75
2019-03-30T01:28:11.169Z,21.27
2019-03-30T01:30:42.181Z,21.87
2019-03-30T01:33:12.314Z,19.62
2019-03-30T01:35:50.193Z,21.57
2019-03-30T01:38:26.964Z,21.30
2019-03-30T01:40:57.129Z,21.07
2019-03-30T01:43:27.208Z,18.75
2019-03-30T01:45:58.122Z,19.42
2019-03-30T01:48:33.917Z,23.57
2019-03-30T01:51:04.340Z,24.92
2019-03-30T01:53:45.061Z,19.82
2019-03-30T01:56:15.157Z,20.77
2019-03-30T01:58:46.140Z,19.05
2019-03-30T02:01:16.229Z,18.85
2019-03-30T02:03:47.237Z,20.25
2019-03-30T02:06:25.007Z,20.68
2019-03-30T02:08:55.972Z,20.40
2019-03-30T02:11:26.941Z,22.13
2019-03-30T02:13:57.032Z,19.48
2019-03-30T02:16:27.128Z,18.10
2019-03-30T02:18:57.221Z,23.38
2019-03-30T02:21:27.312Z,22.05
2019-03-30T02:24:03.766Z,22.13
2019-03-30T02:26:33.828Z,23.57
2019-03-30T02:29:10.900Z,20.12
2019-03-30T02:31:43.046Z,28.92
2019-03-30T02:34:15.025Z,23.20
2019-03-30T02:36:47.090Z,21.80
2019-03-30T02:39:17.197Z,23.02
2019-03-30T02:42:02.407Z,22.55
2019-03-30T02:44:32.510Z,25.05
2019-03-30T02:47:02.604Z,23.85
2019-03-30T02:49:33.673Z,22.15
2019-03-30T02:52:03.832Z,25.40
2019-03-30T02:54:34.850Z,23.15
2019-03-30T02:57:04.931Z,27.87
2019-03-30T02:59:36.546Z,20.68
2019-03-30T03:02:06.652Z,27.93
2019-03-30T03:04:38.285Z,24.35
2019-03-30T03:07:08.363Z,23.45
2019-03-30T03:09:38.480Z,23.65
2019-03-30T03:12:14.681Z,23.12
2019-03-30T03:14:44.757Z,21.30
2019-03-30T03:17:15.867Z,24.15
2019-03-30T03:19:45.942Z,22.75
2019-03-30T03:22:18.278Z,22.82
2019-03-30T03:24:48.350Z,25.57
2019-03-30T03:27:24.314Z,26.48
2019-03-30T03:29:55.436Z,25.57
2019-03-30T03:32:32.241Z,24.55
2019-03-30T03:35:03.363Z,27.65
2019-03-30T03:37:44.742Z,23.92
2019-03-30T03:40:08.998Z,22.45
2019-03-30T03:42:39.062Z,25.60
2019-03-30T03:45:10.080Z,24.77
2019-03-30T03:47:40.186Z,25.65
2019-03-30T03:50:23.554Z,24.63
2019-03-30T03:52:53.631Z,26.97
2019-03-30T03:55:24.146Z,32.03
2019-03-30T03:57:56.451Z,25.15
2019-03-30T04:00:27.037Z,28.10
2019-03-30T04:03:02.175Z,31.45
2019-03-30T04:05:36.270Z,31.97
2019-03-30T04:08:14.922Z,26.57
2019-03-30T04:10:49.521Z,29.35
2019-03-30T04:13:22.610Z,29.00
2019-03-30T04:15:54.605Z,27.67
2019-03-30T04:18:25.250Z,27.85
2019-03-30T04:21:01.097Z,29.32
2019-03-30T04:23:32.136Z,32.20
2019-03-30T04:26:11.365Z,25.70
2019-03-30T04:28:48.789Z,32.38
2019-03-30T04:31:21.506Z,27.90
2019-03-30T04:33:57.385Z,30.68
2019-03-30T04:36:28.744Z,33.40
2019-03-30T04:38:58.773Z,28.73
2019-03-30T04:41:29.910Z,33.70
2019-03-30T04:44:09.780Z,26.35
2019-03-30T04:46:40.781Z,29.00
2019-03-30T04:49:12.897Z,29.85
2019-03-30T04:51:56.976Z,31.10
2019-03-30T04:54:19.021Z,31.57
2019-03-30T04:56:54.901Z,37.50
2019-03-30T04:59:25.001Z,33.00
2019-03-30T05:01:55.097Z,34.73
2019-03-30T05:04:27.175Z,35.73
2019-03-30T05:06:57.302Z,43.58
2019-03-30T05:09:29.289Z,32.33
2019-03-30T05:12:01.313Z,37.80
2019-03-30T05:14:31.457Z,38.35
2019-03-30T05:17:04.725Z,39.73
2019-03-30T05:19:34.813Z,37.88
2019-03-30T05:22:12.581Z,41.23
2019-03-30T05:24:42.381Z,36.00
2019-03-30T05:27:13.799Z,35.23
2019-03-30T05:29:44.853Z,33.38
2019-03-30T05:32:18.493Z,45.10
2019-03-30T05:34:48.591Z,48.85
2019-03-30T05:37:18.721Z,37.88
2019-03-30T05:39:51.771Z,42.30
2019-03-30T05:42:38.793Z,41.55
2019-03-30T05:45:12.703Z,50.43
2019-03-30T05:47:44.770Z,38.58
2019-03-30T05:50:16.929Z,41.83
2019-03-30T05:52:47.005Z,40.55
2019-03-30T05:55:17.090Z,37.60
2019-03-30T05:57:49.129Z,35.83
2019-03-30T06:00:21.318Z,39.50
2019-03-30T06:02:51.441Z,37.28
2019-03-30T06:05:21.531Z,37.55
2019-03-30T06:07:54.561Z,34.03
2019-03-30T06:10:24.773Z,31.97
2019-03-30T06:12:56.806Z,33.78
2019-03-30T06:15:26.885Z,33.33
2019-03-30T06:17:56.970Z,32.70
2019-03-30T06:20:33.817Z,28.77
2019-03-30T06:23:10.090Z,28.62
2019-03-30T06:25:41.132Z,26.17
2019-03-30T06:28:16.974Z,25.27
2019-03-30T06:30:47.095Z,27.82
2019-03-30T06:33:17.275Z,26.50
2019-03-30T06:35:49.378Z,24.82
2019-03-30T06:38:19.491Z,27.45
2019-03-30T06:40:51.686Z,31.55
2019-03-30T06:43:31.813Z,28.90
2019-03-30T06:46:13.929Z,24.85
2019-03-30T06:48:56.022Z,26.73
2019-03-30T06:51:27.058Z,31.62
2019-03-30T06:53:58.109Z,33.50
2019-03-30T06:56:29.133Z,29.33
2019-03-30T06:59:01.189Z,26.93
2019-03-30T07:01:33.606Z,25.10
2019-03-30T07:04:03.773Z,25.43
2019-03-30T07:06:35.214Z,25.63
2019-03-30T07:09:08.092Z,22.43
2019-03-30T07:11:44.729Z,26.13
2019-03-30T07:14:14.931Z,25.00
2019-03-30T07:16:49.402Z,22.80
2019-03-30T07:19:22.115Z,21.83
2019-03-30T07:21:58.091Z,21.03
2019-03-30T07:24:28.177Z,19.70
2019-03-30T07:27:02.574Z,26.27
2019-03-30T07:29:32.685Z,26.20
2019-03-30T07:32:19.751Z,20.80
2019-03-30T07:34:49.865Z,24.00
2019-03-30T07:37:21.953Z,21.70
2019-03-30T07:39:52.061Z,22.53
2019-03-30T07:42:24.679Z,24.00
2019-03-30T07:44:54.765Z,19.80
2019-03-30T07:47:24.897Z,20.10
2019-03-30T07:49:55.009Z,21.67
2019-03-30T07:52:25.101Z,21.00
2019-03-30T07:54:57.165Z,21.90
2019-03-30T07:57:28.213Z,25.47
2019-03-30T07:59:59.243Z,24.17
2019-03-30T08:02:29.356Z,20.40
2019-03-30T08:04:59.445Z,20.57
2019-03-30T08:07:35.554Z,20.77
2019-03-30T08:10:07.963Z,22.07
2019-03-30T08:12:38.053Z,20.50
2019-03-30T08:15:09.375Z,20.70
2019-03-30T08:17:39.465Z,21.57
2019-03-30T08:20:10.101Z,20.07
2019-03-30T08:22:41.177Z,20.23
2019-03-30T08:25:18.258Z,21.03
2019-03-30T08:27:49.318Z,20.67
2019-03-30T08:30:19.881Z,20.90
2019-03-30T08:32:56.894Z,21.60
2019-03-30T08:35:31.933Z,19.00
2019-03-30T08:38:11.089Z,21.97
2019-03-30T08:40:41.243Z,20.17
2019-03-30T08:43:18.301Z,18.93
2019-03-30T08:45:49.361Z,19.23
2019-03-30T08:48:31.417Z,20.57
2019-03-30T08:51:01.536Z,21.10
2019-03-30T08:53:31.625Z,18.57
2019-03-30T08:56:02.797Z,19.43
2019-03-30T08:58:35.529Z,19.90
2019-03-30T09:01:05.824Z,19.33
2019-03-30T09:03:35.909Z,17.43
2019-03-30T09:06:06.139Z,20.30
2019-03-30T09:08:36.214Z,21.17
2019-03-30T09:11:06.774Z,19.97
2019-03-30T09:13:46.085Z,19.63
2019-03-30T09:16:19.208Z,20.27
2019-03-30T09:18:58.410Z,21.50
2019-03-30T09:21:29.479Z,19.47
2019-03-30T09:24:09.634Z,21.20
2019-03-30T09:26:32.597Z,20.43
2019-03-30T09:29:07.709Z,19.50
2019-03-30T09:31:37.802Z,18.70
2019-03-30T09:34:07.897Z,18.67
2019-03-30T09:36:40.038Z,20.10
2019-03-30T09:39:12.865Z,18.47
2019-03-30T09:41:42.963Z,17.67
2019-03-30T09:44:13.057Z,19.00
2019-03-30T09:46:43.181Z,20.83
2019-03-30T09:49:13.334Z,17.93
2019-03-30T09:51:43.429Z,20.70
2019-03-30T09:54:23.719Z,18.97
2019-03-30T09:56:45.569Z,19.77
2019-03-30T09:59:16.629Z,18.70
2019-03-30T10:01:52.397Z,18.47
2019-03-30T10:04:30.494Z,19.33
2019-03-30T10:07:01.473Z,19.00
2019-03-30T10:09:31.571Z,18.77
2019-03-30T10:12:12.809Z,19.63
2019-03-30T10:14:43.006Z,16.60
2019-03-30T10:17:15.016Z,19.80
2019-03-30T10:19:49.647Z,17.83
2019-03-30T10:22:17.554Z,16.87
2019-03-30T10:24:49.553Z,20.33
2019-03-30T10:27:19.638Z,20.10
2019-03-30T10:29:55.581Z,20.57
2019-03-30T10:32:27.514Z,21.63
2019-03-30T10:34:57.679Z,20.33
2019-03-30T10:37:30.833Z,19.37
2019-03-30T10:40:00.955Z,17.57
2019-03-30T10:42:31.047Z,19.80
2019-03-30T10:45:01.197Z,19.67
2019-03-30T10:47:31.326Z,20.10
2019-03-30T10:50:01.466Z,19.40
2019-03-30T10:52:31.585Z,18.50
2019-03-30T10:55:02.693Z,20.63
2019-03-30T10:57:32.810Z,19.60
2019-03-30T11:00:10.885Z,21.40
2019-03-30T11:02:42.017Z,20.33
2019-03-30T11:05:19.282Z,21.00
2019-03-30T11:07:50.281Z,20.97
2019-03-30T11:10:20.472Z,20.10
2019-03-30T11:12:51.509Z,19.63
2019-03-30T11:15:21.589Z,17.80
2019-03-30T11:17:53.712Z,14.63
2019-03-30T11:20:26.782Z,16.23
2019-03-30T11:22:59.578Z,15.53
2019-03-30T11:25:29.709Z,16.03
2019-03-30T11:27:59.841Z,17.47
2019-03-30T11:30:30.906Z,16.57
2019-03-30T11:33:01.001Z,14.73
2019-03-30T11:35:31.998Z,15.27
2019-03-30T11:38:02.118Z,15.20
2019-03-30T11:40:32.197Z,14.17
2019-03-30T11:43:04.874Z,15.07
2019-03-30T11:45:35.953Z,15.27
2019-03-30T11:48:06.047Z,14.40
2019-03-30T11:50:40.124Z,15.20
2019-03-30T11:53:10.292Z,15.47
2019-03-30T11:55:41.297Z,14.70
2019-03-30T11:58:13.305Z,13.80
2019-03-30T12:00:46.526Z,14.90
2019-03-30T12:03:16.629Z,14.07
2019-03-30T12:05:46.757Z,12.90
2019-03-30T12:08:22.605Z,10.87
2019-03-30T12:10:55.739Z,12.27
2019-03-30T12:13:28.933Z,11.90
2019-03-30T12:15:58.987Z,12.30
2019-03-30T12:18:29.185Z,11.83
2019-03-30T12:20:59.279Z,12.00
2019-03-30T12:23:29.361Z,13.33
2019-03-30T12:25:59.465Z,13.60
2019-03-30T12:28:29.561Z,12.90
2019-03-30T12:30:59.649Z,12.33
2019-03-30T12:33:31.086Z,10.40
2019-03-30T12:36:02.293Z,11.43
2019-03-30T12:38:32.417Z,13.70
2019-03-30T12:41:02.519Z,12.87
2019-03-30T12:43:32.606Z,14.63
2019-03-30T12:46:02.705Z,12.00
2019-03-30T12:48:32.815Z,15.93
2019-03-30T12:51:02.944Z,12.37
2019-03-30T12:53:33.166Z,11.60
2019-03-30T12:56:04.194Z,11.80
2019-03-30T12:58:34.273Z,10.80
2019-03-30T13:01:04.428Z,11.83
2019-03-30T13:03:34.526Z,9.17
2019-03-30T13:06:06.513Z,12.00
2019-03-30T13:08:37.524Z,11.00
2019-03-30T13:11:07.644Z,11.13
2019-03-30T13:13:39.585Z,14.10
2019-03-30T13:16:16.574Z,11.23
2019-03-30T13:18:46.669Z,12.47
2019-03-30T13:21:16.765Z,11.33
2019-03-30T13:23:46.858Z,11.53
2019-03-30T13:26:18.894Z,13.23
2019-03-30T13:28:50.981Z,12.37
2019-03-30T13:31:21.130Z,13.73
2019-03-30T13:34:00.408Z,14.20
2019-03-30T13:36:40.493Z,13.60
2019-03-30T13:39:12.338Z,11.63
2019-03-30T13:41:42.430Z,11.03
2019-03-30T13:44:12.530Z,13.23
2019-03-30T13:46:42.620Z,10.10
2019-03-30T13:49:12.718Z,13.70
2019-03-30T13:51:42.934Z,14.40
2019-03-30T13:54:14.998Z,12.10
2019-03-30T13:56:46.990Z,15.50
2019-03-30T13:59:18.034Z,11.60
2019-03-30T14:01:50.043Z,11.30
2019-03-30T14:04:21.062Z,10.93
2019-03-30T14:06:52.028Z,14.43
2019-03-30T14:09:25.186Z,12.60
2019-03-30T14:11:55.278Z,11.13
2019-03-30T14:14:25.369Z,11.03
2019-03-30T14:16:55.450Z,11.43
2019-03-30T14:19:25.524Z,11.30
2019-03-30T14:21:55.613Z,13.37
2019-03-30T14:24:27.660Z,11.20
2019-03-30T14:26:58.646Z,10.10
2019-03-30T14:29:28.750Z,12.00
2019-03-30T14:31:58.870Z,11.47
2019-03-30T14:34:29.024Z,14.00
2019-03-30T14:37:00.043Z,9.57
2019-03-30T14:39:30.142Z,12.07
2019-03-30T14:42:01.128Z,12.53
2019-03-30T14:44:31.235Z,15.67
2019-03-30T14:47:01.320Z,12.07
2019-03-30T14:49:31.417Z,11.30
2019-03-30T14:52:01.494Z,10.77
2019-03-30T14:54:31.585Z,11.40
2019-03-30T14:57:03.210Z,9.20
2019-03-30T14:59:33.301Z,9.47
2019-03-30T15:02:04.283Z,10.00
2019-03-30T15:04:36.262Z,8.13
2019-03-30T15:07:08.297Z,11.73
2019-03-30T15:09:39.354Z,11.33
2019-03-30T15:12:09.439Z,10.10
2019-03-30T15:14:39.558Z,10.17
2019-03-30T15:17:10.538Z,10.87
2019-03-30T15:19:40.610Z,9.53
2019-03-30T15:22:10.688Z,11.00
2019-03-30T15:24:40.767Z,11.37
2019-03-30T15:27:10.902Z,10.80
2019-03-30T15:29:40.994Z,12.00
2019-03-30T15:32:11.084Z,10.20
2019-03-30T15:34:41.178Z,11.90
2019-03-30T15:37:11.294Z,14.73
2019-03-30T15:39:42.310Z,17.70
2019-03-30T15:42:14.278Z,10.73
2019-03-30T15:44:44.370Z,12.73
2019-03-30T15:47:14.519Z,11.50
2019-03-30T15:49:44.619Z,8.37
2019-03-30T15:52:14.698Z,11.40
2019-03-30T15:54:54.707Z,10.67
2019-03-30T15:57:25.868Z,11.67
2019-03-30T15:59:56.921Z,14.40
2019-03-30T16:02:28.902Z,16.83
2019-03-30T16:05:09.998Z,11.03
2019-03-30T16:07:46.798Z,11.93
2019-03-30T16:10:17.978Z,11.90
2019-03-30T16:12:54.238Z,15.10
2019-03-30T16:15:24.320Z,11.73
2019-03-30T16:17:56.298Z,10.60
2019-03-30T16:20:26.414Z,13.37
2019-03-30T16:22:56.503Z,13.00
2019-03-30T16:25:27.606Z,11.40
2019-03-30T16:27:57.934Z,12.07
2019-03-30T16:30:28.958Z,11.87
2019-03-30T16:32:59.082Z,11.50
2019-03-30T16:35:30.086Z,12.07
2019-03-30T16:38:00.136Z,10.50
2019-03-30T16:40:30.246Z,10.00
2019-03-30T16:43:00.348Z,11.80
2019-03-30T16:45:31.084Z,10.93
2019-03-30T16:48:02.238Z,11.07
2019-03-30T16:50:32.358Z,10.90
2019-03-30T16:53:04.930Z,11.20
2019-03-30T16:55:35.018Z,11.30
2019-03-30T16:58:05.194Z,9.80
2019-03-30T17:00:35.371Z,11.20
2019-03-30T17:03:05.527Z,11.53
2019-03-30T17:05:35.630Z,11.87
2019-03-30T17:08:06.783Z,15.70
2019-03-30T17:10:40.140Z,12.30
2019-03-30T17:13:11.964Z,12.07
2019-03-30T17:15:43.092Z,11.43
2019-03-30T17:18:18.889Z,10.60
2019-03-30T17:20:48.986Z,14.03
2019-03-30T17:23:20.078Z,10.43
2019-03-30T17:25:50.166Z,13.80
2019-03-30T17:28:20.250Z,12.00
2019-03-30T17:30:58.654Z,10.57
2019-03-30T17:33:28.729Z,11.10
2019-03-30T17:36:01.718Z,8.67
2019-03-30T17:38:31.850Z,11.03
2019-03-30T17:41:01.950Z,8.47
2019-03-30T17:43:35.026Z,9.80
2019-03-30T17:46:05.106Z,13.07
2019-03-30T17:48:38.353Z,19.73
2019-03-30T17:51:10.442Z,20.40
2019-03-30T17:53:40.526Z,14.80
2019-03-30T17:56:11.510Z,12.73
2019-03-30T17:58:44.804Z,12.63
2019-03-30T18:01:15.939Z,14.70
2019-03-30T18:03:46.159Z,18.53
2019-03-30T18:06:18.130Z,15.63
2019-03-30T18:08:50.138Z,17.37
2019-03-30T18:11:21.146Z,15.70
2019-03-30T18:13:51.235Z,15.17
2019-03-30T18:16:23.278Z,20.80
2019-03-30T18:19:01.158Z,16.23
2019-03-30T18:21:34.357Z,11.37
2019-03-30T18:24:06.751Z,21.73
2019-03-30T18:26:36.872Z,18.63
2019-03-30T18:29:08.906Z,16.30
2019-03-30T18:31:41.414Z,20.40
2019-03-30T18:34:12.766Z,12.70
2019-03-30T18:36:55.786Z,16.20
2019-03-30T18:39:26.119Z,20.00
2019-03-30T18:41:58.191Z,16.27
2019-03-30T18:44:28.430Z,18.33
2019-03-30T18:46:58.518Z,17.13
2019-03-30T18:49:28.682Z,17.60
2019-03-30T18:51:59.370Z,18.80
2019-03-30T18:54:31.070Z,19.47
2019-03-30T18:57:03.371Z,25.97
2019-03-30T18:59:39.936Z,28.20
2019-03-30T19:02:11.042Z,20.60
2019-03-30T19:04:41.138Z,23.10
2019-03-30T19:07:13.182Z,17.63
2019-03-30T19:09:43.362Z,15.00
2019-03-30T19:12:31.566Z,16.87
2019-03-30T19:15:02.726Z,16.53
2019-03-30T19:17:34.861Z,13.90
2019-03-30T19:20:07.370Z,18.12
2019-03-30T19:22:44.182Z,14.45
2019-03-30T19:25:15.238Z,13.75
2019-03-30T19:27:47.290Z,12.18
2019-03-30T19:30:24.484Z,20.05
2019-03-30T19:32:55.522Z,25.70
2019-03-30T19:35:28.530Z,23.77
2019-03-30T19:37:58.625Z,27.67
2019-03-30T19:40:28.718Z,30.02
2019-03-30T19:42:58.862Z,30.82
2019-03-30T19:45:28.962Z,14.87
2019-03-30T19:48:08.310Z,17.27
2019-03-30T19:50:39.530Z,16.60
2019-03-30T19:53:09.594Z,28.30
2019-03-30T19:55:39.690Z,19.40
2019-03-30T19:58:12.694Z,14.15
2019-03-30T20:00:42.989Z,17.25
2019-03-30T20:03:18.868Z,15.85
2019-03-30T20:05:48.986Z,13.32
2019-03-30T20:08:21.026Z,13.38
2019-03-30T20:10:51.142Z,13.08
2019-03-30T20:13:21.268Z,12.98
2019-03-30T20:15:51.350Z,14.30
2019-03-30T20:18:22.319Z,18.85
2019-03-30T20:20:52.422Z,19.67
2019-03-30T20:23:24.000Z,23.87
2019-03-30T20:25:54.077Z,19.92
2019-03-30T20:28:24.162Z,25.10
2019-03-30T20:30:54.277Z,14.53
2019-03-30T20:33:24.388Z,16.27
2019-03-30T20:35:54.553Z,16.45
2019-03-30T20:38:25.294Z,17.32
2019-03-30T20:41:00.582Z,20.90
2019-03-30T20:43:32.306Z,18.70
2019-03-30T20:46:03.367Z,16.62
2019-03-30T20:48:39.510Z,18.35
2019-03-30T20:51:09.611Z,21.65
2019-03-30T20:53:45.938Z,20.08
2019-03-30T20:56:19.670Z,17.42
2019-03-30T20:58:51.674Z,18.45
2019-03-30T21:01:23.734Z,17.17
2019-03-30T21:03:56.522Z,17.80
2019-03-30T21:06:26.671Z,15.35
2019-03-30T21:09:04.166Z,20.23
2019-03-30T21:11:46.570Z,16.62
2019-03-30T21:14:17.662Z,17.48
2019-03-30T21:16:47.778Z,16.37
2019-03-30T21:19:18.914Z,13.53
2019-03-30T21:21:55.825Z,19.45
2019-03-30T21:24:26.110Z,19.05
2019-03-30T21:26:58.219Z,18.20
2019-03-30T21:29:28.310Z,12.20
2019-03-30T21:32:01.646Z,14.10
2019-03-30T21:34:31.686Z,14.43
2019-03-30T21:37:01.778Z,13.20
2019-03-30T21:39:41.002Z,14.73
2019-03-30T21:42:18.374Z,13.50
2019-03-30T21:44:52.102Z,14.58
2019-03-30T21:47:22.170Z,15.25
2019-03-30T21:49:59.198Z,17.20
2019-03-30T21:52:29.278Z,15.13
2019-03-30T21:55:00.433Z,17.77
2019-03-30T21:57:31.998Z,15.30
2019-03-30T22:00:11.021Z,17.23
2019-03-30T22:02:41.119Z,17.27
2019-03-30T22:05:12.246Z,18.20
2019-03-30T22:07:50.794Z,16.97
2019-03-30T22:10:28.717Z,15.13
2019-03-30T22:12:59.717Z,13.35
2019-03-30T22:15:32.828Z,14.10
2019-03-30T22:18:04.255Z,17.10
2019-03-30T22:20:34.374Z,15.40
2019-03-30T22:23:04.543Z,17.40
2019-03-30T22:25:34.803Z,16.52
2019-03-30T22:28:11.353Z,16.90
2019-03-30T22:30:44.394Z,19.87
2019-03-30T22:33:16.794Z,20.55
2019-03-30T22:35:47.794Z,18.73
2019-03-30T22:38:18.831Z,19.20
2019-03-30T22:40:48.932Z,20.68
2019-03-30T22:43:19.014Z,17.35
2019-03-30T22:45:49.114Z,14.05
2019-03-30T22:48:19.011Z,20.35
2019-03-30T22:50:49.102Z,17.65
2019-03-30T22:53:21.084Z,17.25
2019-03-30T22:55:52.122Z,19.32
2019-03-30T22:58:22.219Z,17.57
2019-03-30T23:01:03.003Z,16.05
2019-03-30T23:03:40.109Z,14.85
2019-03-30T23:06:16.066Z,17.05
2019-03-30T23:08:47.114Z,13.35
2019-03-30T23:11:24.694Z,17.30
2019-03-30T23:14:08.286Z,14.75
2019-03-30T23:16:47.470Z,16.12
2019-03-30T23:19:20.663Z,19.48
2019-03-30T23:21:51.682Z,17.35
2019-03-30T23:24:27.554Z,15.50
2019-03-30T23:26:57.637Z,18.92
2019-03-30T23:29:27.750Z,21.52
2019-03-30T23:32:09.022Z,18.07
2019-03-30T23:34:39.630Z,16.97
2019-03-30T23:37:10.830Z,15.70
2019-03-30T23:39:46.714Z,23.80
2019-03-30T23:42:23.569Z,14.47
2019-03-30T23:44:53.650Z,19.07
2019-03-30T23:47:23.757Z,16.97
2019-03-30T23:49:57.055Z,21.00
2019-03-30T23:52:28.587Z,15.88
2019-03-30T23:55:04.391Z,20.12
2019-03-30T23:57:36.454Z,19.40
